GYB weather

Giddings Lee County Airport
Giddings, Texas, United States

Public forecast

Using degrees Fahrenheit for public forecast. Weather courtesy of forecast.io.

METAR (pilot weather report)

Retrieved 2019/09/17 09:35 UTC (0 seconds ago):

KGYB 170935Z AUTO 00000KT 10SM SCT007 24/22 A2994 RMK AO2 T02400220

TAF (pilot weather forecast)

Closest forecast is Austin Bergstrom International Airport, 35.8 nm (66.4 km) W. Retrieved 2019/09/17 06:45 UTC (3 hours ago):

TAF KAUS 170541Z 1706/1812 VRB03KT P6SM SCT020 SCT250 FM171000 VRB03KT P6SM BKN015 FM171600 05008KT P6SM SCT022 BKN050 FM171900 06009KT P6SM VCSH BKN050 FM180100 VRB05KT P6SM SCT022 BKN050